sensor_id;sensor_type;location;lat;lon;timestamp;temperature;humidity
21417;DHT22;10869;52.238;10.716;2023-04-24T03:02:59;10.30;99.90
21417;DHT22;10869;52.238;10.716;2023-04-24T03:05:25;10.30;99.90
21417;DHT22;10869;52.238;10.716;2023-04-24T03:07:52;10.30;99.90
21417;DHT22;10869;52.238;10.716;2023-04-24T03:10:18;10.30;99.90
21417;DHT22;10869;52.238;10.716;2023-04-24T03:12:44;10.30;99.90
21417;DHT22;10869;52.238;10.716;2023-04-24T03:15:10;10.30;99.90
21417;DHT22;10869;52.238;10.716;2023-04-24T03:17:39;10.30;99.90
21417;DHT22;10869;52.238;10.716;2023-04-24T03:20:05;10.30;99.90
21417;DHT22;10869;52.238;10.716;2023-04-24T03:22:31;10.30;99.90
21417;DHT22;10869;52.238;10.716;2023-04-24T03:24:58;10.30;99.90
21417;DHT22;10869;52.238;10.716;2023-04-24T03:27:23;10.30;99.90
21417;DHT22;10869;52.238;10.716;2023-04-24T03:29:49;10.30;99.90
21417;DHT22;10869;52.238;10.716;2023-04-24T03:35:44;10.30;99.90
21417;DHT22;10869;52.238;10.716;2023-04-24T03:38:10;10.20;99.90
21417;DHT22;10869;52.238;10.716;2023-04-24T03:40:36;10.20;99.90
21417;DHT22;10869;52.238;10.716;2023-04-24T03:43:02;10.20;99.90
21417;DHT22;10869;52.238;10.716;2023-04-24T03:45:27;10.20;99.90
21417;DHT22;10869;52.238;10.716;2023-04-24T03:47:53;10.10;99.90
21417;DHT22;10869;52.238;10.716;2023-04-24T03:50:19;10.10;99.90
21417;DHT22;10869;52.238;10.716;2023-04-24T03:52:45;10.10;99.90
21417;DHT22;10869;52.238;10.716;2023-04-24T03:55:11;10.10;99.90
21417;DHT22;10869;52.238;10.716;2023-04-24T03:57:40;10.00;99.90
21417;DHT22;10869;52.238;10.716;2023-04-24T04:00:06;10.00;99.90
21417;DHT22;10869;52.238;10.716;2023-04-24T04:02:32;9.90;99.90
21417;DHT22;10869;52.238;10.716;2023-04-24T04:04:57;9.90;99.90
21417;DHT22;10869;52.238;10.716;2023-04-24T04:07:23;9.80;99.90
21417;DHT22;10869;52.238;10.716;2023-04-24T04:09:49;9.80;99.90
21417;DHT22;10869;52.238;10.716;2023-04-24T04:12:19;9.80;99.90
21417;DHT22;10869;52.238;10.716;2023-04-24T04:14:45;9.70;99.90
21417;DHT22;10869;52.238;10.716;2023-04-24T04:17:11;9.70;99.90
21417;DHT22;10869;52.238;10.716;2023-04-24T04:19:36;9.70;99.90
21417;DHT22;10869;52.238;10.716;2023-04-24T04:22:10;9.70;99.90
21417;DHT22;10869;52.238;10.716;2023-04-24T04:27:32;9.70;99.90
21417;DHT22;10869;52.238;10.716;2023-04-24T04:30:02;9.80;99.90
21417;DHT22;10869;52.238;10.716;2023-04-24T04:32:35;9.80;99.90
21417;DHT22;10869;52.238;10.716;2023-04-24T04:35:05;9.80;99.90
21417;DHT22;10869;52.238;10.716;2023-04-24T04:37:32;9.90;99.90
21417;DHT22;10869;52.238;10.716;2023-04-24T04:39:59;10.00;99.90
21417;DHT22;10869;52.238;10.716;2023-04-24T04:42:26;10.00;99.90
21417;DHT22;10869;52.238;10.716;2023-04-24T04:45:00;10.10;99.90
21417;DHT22;10869;52.238;10.716;2023-04-24T04:47:29;10.10;99.90
21417;DHT22;10869;52.238;10.716;2023-04-24T04:49:58;10.20;99.90
21417;DHT22;10869;52.238;10.716;2023-04-24T04:52:24;10.30;99.90
21417;DHT22;10869;52.238;10.716;2023-04-24T04:54:52;10.20;99.90
21417;DHT22;10869;52.238;10.716;2023-04-24T04:57:18;10.30;99.90
21417;DHT22;10869;52.238;10.716;2023-04-24T04:59:44;10.40;99.90
21417;DHT22;10869;52.238;10.716;2023-04-24T05:05:32;10.50;99.90
21417;DHT22;10869;52.238;10.716;2023-04-24T05:11:19;10.60;99.90
21417;DHT22;10869;52.238;10.716;2023-04-24T05:13:45;10.70;99.90
21417;DHT22;10869;52.238;10.716;2023-04-24T05:16:11;10.70;99.90
21417;DHT22;10869;52.238;10.716;2023-04-24T05:21:59;10.80;99.90
21417;DHT22;10869;52.238;10.716;2023-04-24T05:27:46;11.00;99.90
21417;DHT22;10869;52.238;10.716;2023-04-24T05:30:12;11.00;99.90
21417;DHT22;10869;52.238;10.716;2023-04-24T05:32:38;11.10;99.90
21417;DHT22;10869;52.238;10.716;2023-04-24T05:35:04;11.10;99.90
21417;DHT22;10869;52.238;10.716;2023-04-24T05:40:52;11.30;99.90
21417;DHT22;10869;52.238;10.716;2023-04-24T05:43:18;11.30;99.90
21417;DHT22;10869;52.238;10.716;2023-04-24T05:45:44;11.40;99.90
21417;DHT22;10869;52.238;10.716;2023-04-24T05:51:53;11.60;99.90
21417;DHT22;10869;52.238;10.716;2023-04-24T05:59:47;11.80;99.90
21417;DHT22;10869;52.238;10.716;2023-04-24T06:08:12;12.00;99.90
21417;DHT22;10869;52.238;10.716;2023-04-24T06:10:38;12.30;99.90
21417;DHT22;10869;52.238;10.716;2023-04-24T06:13:04;12.50;99.90
21417;DHT22;10869;52.238;10.716;2023-04-24T06:15:30;12.50;99.90
21417;DHT22;10869;52.238;10.716;2023-04-24T06:18:00;12.40;99.90
21417;DHT22;10869;52.238;10.716;2023-04-24T06:20:26;12.80;99.90
21417;DHT22;10869;52.238;10.716;2023-04-24T06:22:52;13.20;99.90
21417;DHT22;10869;52.238;10.716;2023-04-24T06:25:18;13.40;99.90
21417;DHT22;10869;52.238;10.716;2023-04-24T06:27:44;13.40;99.90
21417;DHT22;10869;52.238;10.716;2023-04-24T06:30:10;13.50;99.90
21417;DHT22;10869;52.238;10.716;2023-04-24T06:32:37;13.60;99.90
21417;DHT22;10869;52.238;10.716;2023-04-24T06:35:03;13.40;99.90
21417;DHT22;10869;52.238;10.716;2023-04-24T06:37:30;13.20;99.90
21417;DHT22;10869;52.238;10.716;2023-04-24T06:43:18;12.80;99.90
21417;DHT22;10869;52.238;10.716;2023-04-24T06:45:45;12.60;99.90
21417;DHT22;10869;52.238;10.716;2023-04-24T06:48:12;12.50;99.90
21417;DHT22;10869;52.238;10.716;2023-04-24T06:50:41;12.40;99.90
21417;DHT22;10869;52.238;10.716;2023-04-24T06:53:07;12.30;99.90
21417;DHT22;10869;52.238;10.716;2023-04-24T06:58:09;12.20;99.90
21417;DHT22;10869;52.238;10.716;2023-04-24T07:00:38;12.20;99.90
21417;DHT22;10869;52.238;10.716;2023-04-24T07:03:04;12.10;99.90
21417;DHT22;10869;52.238;10.716;2023-04-24T07:05:33;12.10;99.90
21417;DHT22;10869;52.238;10.716;2023-04-24T07:08:05;12.10;99.90
21417;DHT22;10869;52.238;10.716;2023-04-24T07:11:12;12.20;99.90
21417;DHT22;10869;52.238;10.716;2023-04-24T07:25:37;13.70;99.90
21417;DHT22;10869;52.238;10.716;2023-04-24T08:07:00;11.80;99.90
21417;DHT22;10869;52.238;10.716;2023-04-24T08:09:26;11.70;99.90
21417;DHT22;10869;52.238;10.716;2023-04-24T08:23:36;11.90;99.90
21417;DHT22;10869;52.238;10.716;2023-04-24T08:31:14;12.30;99.90
21417;DHT22;10869;52.238;10.716;2023-04-24T08:33:40;12.50;99.90
21417;DHT22;10869;52.238;10.716;2023-04-24T08:36:08;12.50;99.90
21417;DHT22;10869;52.238;10.716;2023-04-24T08:41:17;12.80;99.90
21417;DHT22;10869;52.238;10.716;2023-04-24T09:01:53;15.00;99.90
21417;DHT22;10869;52.238;10.716;2023-04-24T09:10:29;14.90;99.90
21417;DHT22;10869;52.238;10.716;2023-04-24T09:12:56;15.00;99.90
21417;DHT22;10869;52.238;10.716;2023-04-24T09:15:35;15.30;99.90
21417;DHT22;10869;52.238;10.716;2023-04-24T09:18:01;15.70;99.90
21417;DHT22;10869;52.238;10.716;2023-04-24T09:20:34;16.00;99.90
21417;DHT22;10869;52.238;10.716;2023-04-24T09:37:46;16.60;99.90
21417;DHT22;10869;52.238;10.716;2023-04-24T09:43:35;16.30;99.90
21417;DHT22;10869;52.238;10.716;2023-04-24T09:46:06;16.50;99.30
21417;DHT22;10869;52.238;10.716;2023-04-24T09:48:41;16.40;99.70
21417;DHT22;10869;52.238;10.716;2023-04-24T09:52:15;16.10;99.20
21417;DHT22;10869;52.238;10.716;2023-04-24T10:05:27;15.50;99.70
21417;DHT22;10869;52.238;10.716;2023-04-24T10:25:07;15.80;99.90
21417;DHT22;10869;52.238;10.716;2023-04-24T10:30:09;15.40;99.90
21417;DHT22;10869;52.238;10.716;2023-04-24T10:41:23;14.50;99.90
21417;DHT22;10869;52.238;10.716;2023-04-24T10:48:26;14.00;99.90
21417;DHT22;10869;52.238;10.716;2023-04-24T10:51:35;13.80;99.90
21417;DHT22;10869;52.238;10.716;2023-04-24T11:51:29;15.40;97.40
21417;DHT22;10869;52.238;10.716;2023-04-24T11:54:00;15.40;97.60
21417;DHT22;10869;52.238;10.716;2023-04-24T12:00:07;15.30;97.60
21417;DHT22;10869;52.238;10.716;2023-04-24T12:19:33;14.10;99.90
21417;DHT22;10869;52.238;10.716;2023-04-24T12:35:04;14.80;99.90
21417;DHT22;10869;52.238;10.716;2023-04-24T12:37:33;14.80;99.90
21417;DHT22;10869;52.238;10.716;2023-04-24T12:40:12;14.70;99.70
21417;DHT22;10869;52.238;10.716;2023-04-24T12:42:50;14.80;99.30
21417;DHT22;10869;52.238;10.716;2023-04-24T12:45:21;14.80;99.20
21417;DHT22;10869;52.238;10.716;2023-04-24T12:48:00;14.80;99.60
21417;DHT22;10869;52.238;10.716;2023-04-24T12:50:26;14.90;99.40
21417;DHT22;10869;52.238;10.716;2023-04-24T12:53:04;14.80;99.20
21417;DHT22;10869;52.238;10.716;2023-04-24T12:55:33;15.20;99.60
21417;DHT22;10869;52.238;10.716;2023-04-24T12:57:59;15.20;99.50
21417;DHT22;10869;52.238;10.716;2023-04-24T13:00:25;14.90;99.90
21417;DHT22;10869;52.238;10.716;2023-04-24T13:02:50;14.80;99.60
21417;DHT22;10869;52.238;10.716;2023-04-24T13:05:16;14.50;99.90
21417;DHT22;10869;52.238;10.716;2023-04-24T13:07:50;14.40;99.90
21417;DHT22;10869;52.238;10.716;2023-04-24T13:10:18;14.10;99.90
21417;DHT22;10869;52.238;10.716;2023-04-24T13:12:53;13.90;99.90
21417;DHT22;10869;52.238;10.716;2023-04-24T13:18:41;13.30;99.90
21417;DHT22;10869;52.238;10.716;2023-04-24T13:29:05;13.50;99.90
21417;DHT22;10869;52.238;10.716;2023-04-24T13:31:31;13.40;99.90
21417;DHT22;10869;52.238;10.716;2023-04-24T13:33:58;13.40;99.90
21417;DHT22;10869;52.238;10.716;2023-04-24T13:36:25;13.40;99.90
21417;DHT22;10869;52.238;10.716;2023-04-24T13:38:51;13.60;99.90
21417;DHT22;10869;52.238;10.716;2023-04-24T13:41:18;14.30;99.90
21417;DHT22;10869;52.238;10.716;2023-04-24T13:43:44;14.70;99.70
21417;DHT22;10869;52.238;10.716;2023-04-24T14:18:55;12.00;99.90
21417;DHT22;10869;52.238;10.716;2023-04-24T14:21:22;12.10;99.90
21417;DHT22;10869;52.238;10.716;2023-04-24T14:23:51;12.10;99.90
21417;DHT22;10869;52.238;10.716;2023-04-24T14:29:47;12.10;99.90
21417;DHT22;10869;52.238;10.716;2023-04-24T14:32:27;12.10;99.90
21417;DHT22;10869;52.238;10.716;2023-04-24T14:38:16;11.70;99.90
21417;DHT22;10869;52.238;10.716;2023-04-24T14:44:08;11.50;99.90
21417;DHT22;10869;52.238;10.716;2023-04-24T14:46:37;11.30;99.90
21417;DHT22;10869;52.238;10.716;2023-04-24T14:55:02;10.90;99.90
21417;DHT22;10869;52.238;10.716;2023-04-24T14:57:28;10.80;99.90
21417;DHT22;10869;52.238;10.716;2023-04-24T14:59:54;10.60;99.90
21417;DHT22;10869;52.238;10.716;2023-04-24T15:02:34;10.60;99.90
21417;DHT22;10869;52.238;10.716;2023-04-24T15:05:03;10.40;99.90
21417;DHT22;10869;52.238;10.716;2023-04-24T15:07:37;10.30;99.90
21417;DHT22;10869;52.238;10.716;2023-04-24T15:16:16;10.10;99.90
21417;DHT22;10869;52.238;10.716;2023-04-24T15:18:42;10.10;99.90
21417;DHT22;10869;52.238;10.716;2023-04-24T15:21:07;10.10;99.90
21417;DHT22;10869;52.238;10.716;2023-04-24T15:23:33;10.10;99.90
21417;DHT22;10869;52.238;10.716;2023-04-24T15:26:01;10.10;99.90
21417;DHT22;10869;52.238;10.716;2023-04-24T15:28:30;10.10;99.90
21417;DHT22;10869;52.238;10.716;2023-04-24T15:30:57;10.00;99.90
21417;DHT22;10869;52.238;10.716;2023-04-24T15:33:24;10.00;99.90
21417;DHT22;10869;52.238;10.716;2023-04-24T15:35:54;10.00;99.90
21417;DHT22;10869;52.238;10.716;2023-04-24T15:38:24;10.10;99.90
21417;DHT22;10869;52.238;10.716;2023-04-24T15:40:50;10.00;99.90
21417;DHT22;10869;52.238;10.716;2023-04-24T15:43:15;10.00;99.90
21417;DHT22;10869;52.238;10.716;2023-04-24T15:45:45;10.00;99.90
21417;DHT22;10869;52.238;10.716;2023-04-24T15:48:14;10.00;99.90
21417;DHT22;10869;52.238;10.716;2023-04-24T15:50:45;9.90;99.90
21417;DHT22;10869;52.238;10.716;2023-04-24T15:53:12;9.80;99.90
21417;DHT22;10869;52.238;10.716;2023-04-24T15:55:40;9.70;99.90
21417;DHT22;10869;52.238;10.716;2023-04-24T15:58:09;9.60;99.90
21417;DHT22;10869;52.238;10.716;2023-04-24T16:00:40;9.60;99.90
21417;DHT22;10869;52.238;10.716;2023-04-24T16:03:06;9.70;99.90
21417;DHT22;10869;52.238;10.716;2023-04-24T16:05:32;9.70;99.90
21417;DHT22;10869;52.238;10.716;2023-04-24T16:07:58;9.80;99.90
21417;DHT22;10869;52.238;10.716;2023-04-24T16:10:25;9.80;99.90
21417;DHT22;10869;52.238;10.716;2023-04-24T16:12:53;9.80;99.90
21417;DHT22;10869;52.238;10.716;2023-04-24T16:15:19;9.70;99.90
21417;DHT22;10869;52.238;10.716;2023-04-24T16:17:55;9.70;99.90
21417;DHT22;10869;52.238;10.716;2023-04-24T16:20:21;9.70;99.90
21417;DHT22;10869;52.238;10.716;2023-04-24T16:22:46;9.70;99.90
21417;DHT22;10869;52.238;10.716;2023-04-24T16:25:15;9.90;99.90
21417;DHT22;10869;52.238;10.716;2023-04-24T16:27:41;10.20;99.90
21417;DHT22;10869;52.238;10.716;2023-04-24T16:30:11;10.30;99.90
21417;DHT22;10869;52.238;10.716;2023-04-24T16:37:49;10.20;99.90
21417;DHT22;10869;52.238;10.716;2023-04-24T16:40:17;10.20;99.90
21417;DHT22;10869;52.238;10.716;2023-04-24T16:46:08;10.10;99.90
21417;DHT22;10869;52.238;10.716;2023-04-24T16:48:36;10.00;99.90
21417;DHT22;10869;52.238;10.716;2023-04-24T16:54:29;9.90;99.90
21417;DHT22;10869;52.238;10.716;2023-04-24T16:57:02;9.80;99.90
21417;DHT22;10869;52.238;10.716;2023-04-24T16:59:56;9.80;99.90
21417;DHT22;10869;52.238;10.716;2023-04-24T17:02:22;9.70;99.90
21417;DHT22;10869;52.238;10.716;2023-04-24T17:04:48;9.70;99.90
21417;DHT22;10869;52.238;10.716;2023-04-24T17:07:16;9.60;99.90
21417;DHT22;10869;52.238;10.716;2023-04-24T17:13:08;9.50;99.90
21417;DHT22;10869;52.238;10.716;2023-04-24T17:18:26;9.50;99.90
21417;DHT22;10869;52.238;10.716;2023-04-24T17:24:18;9.30;99.90
21417;DHT22;10869;52.238;10.716;2023-04-24T17:26:44;9.30;99.90
21417;DHT22;10869;52.238;10.716;2023-04-24T17:29:11;9.30;99.90
21417;DHT22;10869;52.238;10.716;2023-04-24T17:34:59;9.20;99.90
21417;DHT22;10869;52.238;10.716;2023-04-24T17:37:26;9.10;99.90
21417;DHT22;10869;52.238;10.716;2023-04-24T17:39:57;9.10;99.90
21417;DHT22;10869;52.238;10.716;2023-04-24T17:42:26;9.00;99.90
21417;DHT22;10869;52.238;10.716;2023-04-24T17:44:53;9.00;99.90
21417;DHT22;10869;52.238;10.716;2023-04-24T18:00:16;8.90;99.90
21417;DHT22;10869;52.238;10.716;2023-04-24T18:02:42;8.80;99.90
21417;DHT22;10869;52.238;10.716;2023-04-24T18:05:08;8.80;99.90
21417;DHT22;10869;52.238;10.716;2023-04-24T18:07:34;8.80;99.90
21417;DHT22;10869;52.238;10.716;2023-04-24T18:09:59;8.80;99.90
21417;DHT22;10869;52.238;10.716;2023-04-24T18:12:28;8.80;99.90
21417;DHT22;10869;52.238;10.716;2023-04-24T18:14:57;8.80;99.90
21417;DHT22;10869;52.238;10.716;2023-04-24T18:17:23;8.70;99.90
21417;DHT22;10869;52.238;10.716;2023-04-24T18:19:50;8.70;99.90
21417;DHT22;10869;52.238;10.716;2023-04-24T18:22:16;8.70;99.90
21417;DHT22;10869;52.238;10.716;2023-04-24T18:24:42;8.70;99.90
21417;DHT22;10869;52.238;10.716;2023-04-24T18:27:08;8.70;99.90
21417;DHT22;10869;52.238;10.716;2023-04-24T18:29:36;8.70;99.90
21417;DHT22;10869;52.238;10.716;2023-04-24T18:32:02;8.60;99.90
21417;DHT22;10869;52.238;10.716;2023-04-24T18:34:29;8.60;99.90
21417;DHT22;10869;52.238;10.716;2023-04-24T18:36:55;8.60;99.90
21417;DHT22;10869;52.238;10.716;2023-04-24T18:39:21;8.50;99.90
21417;DHT22;10869;52.238;10.716;2023-04-24T18:41:47;8.50;99.90
21417;DHT22;10869;52.238;10.716;2023-04-24T18:44:13;8.50;99.90
21417;DHT22;10869;52.238;10.716;2023-04-24T18:46:39;8.50;99.90
21417;DHT22;10869;52.238;10.716;2023-04-24T18:49:08;8.50;99.90
21417;DHT22;10869;52.238;10.716;2023-04-24T18:51:34;8.50;99.90
21417;DHT22;10869;52.238;10.716;2023-04-24T18:54:00;8.50;99.90
21417;DHT22;10869;52.238;10.716;2023-04-24T18:56:26;8.40;99.90
21417;DHT22;10869;52.238;10.716;2023-04-24T18:58:52;8.40;99.90
21417;DHT22;10869;52.238;10.716;2023-04-24T19:01:21;8.40;99.90
21417;DHT22;10869;52.238;10.716;2023-04-24T19:03:47;8.40;99.90
21417;DHT22;10869;52.238;10.716;2023-04-24T19:09:37;8.30;99.90
21417;DHT22;10869;52.238;10.716;2023-04-24T19:12:05;8.30;99.90
21417;DHT22;10869;52.238;10.716;2023-04-24T19:14:33;8.30;99.90
21417;DHT22;10869;52.238;10.716;2023-04-24T19:16:59;8.30;99.90
21417;DHT22;10869;52.238;10.716;2023-04-24T19:19:25;8.30;99.90
21417;DHT22;10869;52.238;10.716;2023-04-24T19:21:53;8.30;99.90
21417;DHT22;10869;52.238;10.716;2023-04-24T19:24:19;8.30;99.90
21417;DHT22;10869;52.238;10.716;2023-04-24T19:26:46;8.30;99.90
21417;DHT22;10869;52.238;10.716;2023-04-24T19:29:12;8.30;99.90
21417;DHT22;10869;52.238;10.716;2023-04-24T19:35:00;8.20;99.90
21417;DHT22;10869;52.238;10.716;2023-04-24T19:37:26;8.10;99.90
21417;DHT22;10869;52.238;10.716;2023-04-24T19:39:51;8.00;99.90
21417;DHT22;10869;52.238;10.716;2023-04-24T19:45:39;7.90;99.90
21417;DHT22;10869;52.238;10.716;2023-04-24T19:48:06;7.80;99.90
21417;DHT22;10869;52.238;10.716;2023-04-24T19:50:32;7.80;99.90
21417;DHT22;10869;52.238;10.716;2023-04-24T19:52:59;7.70;99.90
21417;DHT22;10869;52.238;10.716;2023-04-24T19:55:25;7.70;99.90
21417;DHT22;10869;52.238;10.716;2023-04-24T20:01:13;7.60;99.90
21417;DHT22;10869;52.238;10.716;2023-04-24T20:07:01;7.60;99.90
21417;DHT22;10869;52.238;10.716;2023-04-24T20:12:49;7.50;99.90
21417;DHT22;10869;52.238;10.716;2023-04-24T20:15:16;7.50;99.90
21417;DHT22;10869;52.238;10.716;2023-04-24T20:17:41;7.50;99.90
21417;DHT22;10869;52.238;10.716;2023-04-24T20:20:08;7.50;99.90
21417;DHT22;10869;52.238;10.716;2023-04-24T20:22:35;7.50;99.90
21417;DHT22;10869;52.238;10.716;2023-04-24T20:25:07;7.50;99.90
21417;DHT22;10869;52.238;10.716;2023-04-24T20:27:34;7.50;99.90
21417;DHT22;10869;52.238;10.716;2023-04-24T20:33:32;7.40;99.90
21417;DHT22;10869;52.238;10.716;2023-04-24T20:36:03;7.30;99.90
21417;DHT22;10869;52.238;10.716;2023-04-24T20:38:29;7.20;99.90
21417;DHT22;10869;52.238;10.716;2023-04-24T20:41:01;7.20;99.90
21417;DHT22;10869;52.238;10.716;2023-04-24T20:43:32;7.10;99.90
21417;DHT22;10869;52.238;10.716;2023-04-24T20:46:13;7.10;99.90
21417;DHT22;10869;52.238;10.716;2023-04-24T20:48:40;7.10;99.90
21417;DHT22;10869;52.238;10.716;2023-04-24T20:54:39;7.10;99.90
21417;DHT22;10869;52.238;10.716;2023-04-24T20:57:09;7.20;99.90
21417;DHT22;10869;52.238;10.716;2023-04-24T20:59:40;7.20;99.90
21417;DHT22;10869;52.238;10.716;2023-04-24T21:02:08;7.30;99.90
21417;DHT22;10869;52.238;10.716;2023-04-24T21:04:53;7.30;99.90
21417;DHT22;10869;52.238;10.716;2023-04-24T21:07:20;7.30;99.90
21417;DHT22;10869;52.238;10.716;2023-04-24T21:09:46;7.30;99.90
21417;DHT22;10869;52.238;10.716;2023-04-24T21:12:13;7.40;99.90
21417;DHT22;10869;52.238;10.716;2023-04-24T21:14:39;7.40;99.90
21417;DHT22;10869;52.238;10.716;2023-04-24T21:17:06;7.40;99.90
21417;DHT22;10869;52.238;10.716;2023-04-24T21:19:33;7.40;99.90
21417;DHT22;10869;52.238;10.716;2023-04-24T21:22:00;7.40;99.90
21417;DHT22;10869;52.238;10.716;2023-04-24T21:24:31;7.30;99.90
21417;DHT22;10869;52.238;10.716;2023-04-24T21:30:20;7.20;99.90
21417;DHT22;10869;52.238;10.716;2023-04-24T21:32:47;7.10;99.90
21417;DHT22;10869;52.238;10.716;2023-04-24T21:35:17;7.10;99.90
21417;DHT22;10869;52.238;10.716;2023-04-24T21:37:43;7.10;99.90
21417;DHT22;10869;52.238;10.716;2023-04-24T21:40:09;7.10;99.90
21417;DHT22;10869;52.238;10.716;2023-04-24T21:42:38;7.10;99.90
21417;DHT22;10869;52.238;10.716;2023-04-24T21:45:26;7.10;99.90
21417;DHT22;10869;52.238;10.716;2023-04-24T21:48:16;7.20;99.90
21417;DHT22;10869;52.238;10.716;2023-04-24T21:50:46;7.20;99.90
21417;DHT22;10869;52.238;10.716;2023-04-24T21:53:12;7.20;99.90
21417;DHT22;10869;52.238;10.716;2023-04-24T21:55:38;7.20;99.90
21417;DHT22;10869;52.238;10.716;2023-04-24T21:58:06;7.20;99.90
21417;DHT22;10869;52.238;10.716;2023-04-24T22:00:32;7.20;99.90
21417;DHT22;10869;52.238;10.716;2023-04-24T22:02:59;7.20;99.90
21417;DHT22;10869;52.238;10.716;2023-04-24T22:05:32;7.10;99.90
21417;DHT22;10869;52.238;10.716;2023-04-24T22:07:58;7.10;99.90
21417;DHT22;10869;52.238;10.716;2023-04-24T22:10:25;7.00;99.90
21417;DHT22;10869;52.238;10.716;2023-04-24T22:12:51;7.00;99.90
21417;DHT22;10869;52.238;10.716;2023-04-24T22:15:18;7.00;99.90
21417;DHT22;10869;52.238;10.716;2023-04-24T22:17:53;6.90;99.90
21417;DHT22;10869;52.238;10.716;2023-04-24T22:20:24;7.00;99.90
21417;DHT22;10869;52.238;10.716;2023-04-24T22:22:51;6.90;99.90
21417;DHT22;10869;52.238;10.716;2023-04-24T22:25:25;7.00;99.90
21417;DHT22;10869;52.238;10.716;2023-04-24T22:27:51;7.00;99.90
21417;DHT22;10869;52.238;10.716;2023-04-24T22:30:17;7.00;99.90
21417;DHT22;10869;52.238;10.716;2023-04-24T22:32:43;7.00;99.90
21417;DHT22;10869;52.238;10.716;2023-04-24T22:35:16;7.00;99.90
21417;DHT22;10869;52.238;10.716;2023-04-24T22:37:53;7.00;99.90
21417;DHT22;10869;52.238;10.716;2023-04-24T22:40:21;7.10;99.90
21417;DHT22;10869;52.238;10.716;2023-04-24T22:42:49;7.00;99.90
21417;DHT22;10869;52.238;10.716;2023-04-24T22:45:16;7.00;99.90
21417;DHT22;10869;52.238;10.716;2023-04-24T22:47:43;7.10;99.90
21417;DHT22;10869;52.238;10.716;2023-04-24T22:50:14;7.10;99.90
21417;DHT22;10869;52.238;10.716;2023-04-24T22:52:42;7.10;99.90
21417;DHT22;10869;52.238;10.716;2023-04-24T22:55:20;7.20;99.90
21417;DHT22;10869;52.238;10.716;2023-04-24T22:57:48;7.20;99.90
